sensor_id;sensor_type;location;lat;lon;timestamp;P1;durP1;ratioP1;P2;durP2;ratioP2
13866;SDS011;7003;46.982;15.248;2023-03-21T00:01:15;2.80;;;2.30;;
13866;SDS011;7003;46.982;15.248;2023-03-21T00:03:43;5.10;;;3.27;;
13866;SDS011;7003;46.982;15.248;2023-03-21T00:06:11;3.17;;;2.17;;
13866;SDS011;7003;46.982;15.248;2023-03-21T00:08:41;2.13;;;1.93;;
13866;SDS011;7003;46.982;15.248;2023-03-21T00:11:12;5.57;;;2.50;;
13866;SDS011;7003;46.982;15.248;2023-03-21T00:13:42;2.97;;;2.17;;
13866;SDS011;7003;46.982;15.248;2023-03-21T00:16:13;2.00;;;1.90;;
13866;SDS011;7003;46.982;15.248;2023-03-21T00:18:44;2.07;;;1.77;;
13866;SDS011;7003;46.982;15.248;2023-03-21T00:21:18;3.13;;;2.17;;
13866;SDS011;7003;46.982;15.248;2023-03-21T00:23:48;1.73;;;1.63;;
13866;SDS011;7003;46.982;15.248;2023-03-21T00:26:18;1.80;;;1.70;;
13866;SDS011;7003;46.982;15.248;2023-03-21T00:28:47;1.60;;;1.50;;
13866;SDS011;7003;46.982;15.248;2023-03-21T00:31:14;2.53;;;2.33;;
13866;SDS011;7003;46.982;15.248;2023-03-21T00:33:41;3.17;;;2.10;;
13866;SDS011;7003;46.982;15.248;2023-03-21T00:36:11;3.00;;;2.30;;
13866;SDS011;7003;46.982;15.248;2023-03-21T00:38:39;1.90;;;1.40;;
13866;SDS011;7003;46.982;15.248;2023-03-21T00:41:10;5.50;;;2.57;;
13866;SDS011;7003;46.982;15.248;2023-03-21T00:43:39;1.80;;;1.70;;
13866;SDS011;7003;46.982;15.248;2023-03-21T00:46:06;4.03;;;1.97;;
13866;SDS011;7003;46.982;15.248;2023-03-21T00:48:34;2.83;;;2.50;;
13866;SDS011;7003;46.982;15.248;2023-03-21T00:51:01;3.87;;;2.47;;
13866;SDS011;7003;46.982;15.248;2023-03-21T00:53:31;6.80;;;2.50;;
13866;SDS011;7003;46.982;15.248;2023-03-21T00:55:59;2.50;;;1.90;;
13866;SDS011;7003;46.982;15.248;2023-03-21T00:58:28;3.37;;;2.47;;
13866;SDS011;7003;46.982;15.248;2023-03-21T01:00:56;2.50;;;2.23;;
13866;SDS011;7003;46.982;15.248;2023-03-21T01:03:28;4.07;;;2.07;;
13866;SDS011;7003;46.982;15.248;2023-03-21T01:05:58;3.73;;;2.37;;
13866;SDS011;7003;46.982;15.248;2023-03-21T01:08:34;2.77;;;2.13;;
13866;SDS011;7003;46.982;15.248;2023-03-21T01:11:05;2.07;;;1.87;;
13866;SDS011;7003;46.982;15.248;2023-03-21T01:13:34;1.70;;;1.47;;
13866;SDS011;7003;46.982;15.248;2023-03-21T01:16:04;2.37;;;2.17;;
13866;SDS011;7003;46.982;15.248;2023-03-21T01:18:37;5.87;;;1.93;;
13866;SDS011;7003;46.982;15.248;2023-03-21T01:21:11;2.27;;;2.10;;
13866;SDS011;7003;46.982;15.248;2023-03-21T01:23:44;2.30;;;2.03;;
13866;SDS011;7003;46.982;15.248;2023-03-21T01:26:11;2.13;;;1.90;;
13866;SDS011;7003;46.982;15.248;2023-03-21T01:28:39;2.90;;;1.17;;
13866;SDS011;7003;46.982;15.248;2023-03-21T01:31:10;2.30;;;1.93;;
13866;SDS011;7003;46.982;15.248;2023-03-21T01:33:38;1.77;;;1.00;;
13866;SDS011;7003;46.982;15.248;2023-03-21T01:36:08;3.83;;;2.30;;
13866;SDS011;7003;46.982;15.248;2023-03-21T01:38:40;2.33;;;1.90;;
13866;SDS011;7003;46.982;15.248;2023-03-21T01:41:11;6.40;;;1.77;;
13866;SDS011;7003;46.982;15.248;2023-03-21T01:43:46;2.03;;;1.83;;
13866;SDS011;7003;46.982;15.248;2023-03-21T01:49:05;1.67;;;1.30;;
13866;SDS011;7003;46.982;15.248;2023-03-21T01:51:37;1.80;;;1.57;;
13866;SDS011;7003;46.982;15.248;2023-03-21T01:54:08;3.07;;;2.27;;
13866;SDS011;7003;46.982;15.248;2023-03-21T01:56:42;2.37;;;2.00;;
13866;SDS011;7003;46.982;15.248;2023-03-21T01:59:16;6.27;;;1.90;;
13866;SDS011;7003;46.982;15.248;2023-03-21T02:01:49;1.87;;;1.73;;
13866;SDS011;7003;46.982;15.248;2023-03-21T02:04:19;1.97;;;1.77;;
13866;SDS011;7003;46.982;15.248;2023-03-21T02:06:56;1.57;;;1.47;;
13866;SDS011;7003;46.982;15.248;2023-03-21T02:09:27;2.13;;;1.93;;
13866;SDS011;7003;46.982;15.248;2023-03-21T02:12:02;2.43;;;2.10;;
13866;SDS011;7003;46.982;15.248;2023-03-21T02:14:32;2.13;;;1.77;;
13866;SDS011;7003;46.982;15.248;2023-03-21T02:17:06;1.67;;;1.57;;
13866;SDS011;7003;46.982;15.248;2023-03-21T02:26:11;3.33;;;2.07;;
13866;SDS011;7003;46.982;15.248;2023-03-21T02:28:56;3.40;;;1.60;;
13866;SDS011;7003;46.982;15.248;2023-03-21T02:31:31;1.60;;;1.50;;
13866;SDS011;7003;46.982;15.248;2023-03-21T02:34:16;4.90;;;2.17;;
13866;SDS011;7003;46.982;15.248;2023-03-21T02:37:15;1.60;;;1.50;;
13866;SDS011;7003;46.982;15.248;2023-03-21T02:39:54;1.67;;;1.53;;
13866;SDS011;7003;46.982;15.248;2023-03-21T02:42:32;1.87;;;1.57;;
13866;SDS011;7003;46.982;15.248;2023-03-21T02:45:11;2.00;;;1.80;;
13866;SDS011;7003;46.982;15.248;2023-03-21T02:47:45;5.50;;;1.80;;
13866;SDS011;7003;46.982;15.248;2023-03-21T02:50:17;2.17;;;1.47;;
13866;SDS011;7003;46.982;15.248;2023-03-21T02:52:50;2.20;;;1.77;;
13866;SDS011;7003;46.982;15.248;2023-03-21T02:55:23;3.53;;;2.07;;
13866;SDS011;7003;46.982;15.248;2023-03-21T02:57:53;3.37;;;1.63;;
13866;SDS011;7003;46.982;15.248;2023-03-21T03:00:23;1.73;;;1.17;;
13866;SDS011;7003;46.982;15.248;2023-03-21T03:02:52;1.60;;;1.50;;
13866;SDS011;7003;46.982;15.248;2023-03-21T03:05:21;3.00;;;1.87;;
13866;SDS011;7003;46.982;15.248;2023-03-21T03:07:58;1.77;;;1.60;;
13866;SDS011;7003;46.982;15.248;2023-03-21T03:13:38;2.23;;;1.50;;
13866;SDS011;7003;46.982;15.248;2023-03-21T03:16:17;2.57;;;1.97;;
13866;SDS011;7003;46.982;15.248;2023-03-21T03:18:53;5.23;;;1.70;;
13866;SDS011;7003;46.982;15.248;2023-03-21T03:21:26;2.33;;;2.13;;
13866;SDS011;7003;46.982;15.248;2023-03-21T03:24:00;3.13;;;1.87;;
13866;SDS011;7003;46.982;15.248;2023-03-21T03:26:29;2.60;;;1.50;;
13866;SDS011;7003;46.982;15.248;2023-03-21T03:29:02;1.40;;;1.30;;
13866;SDS011;7003;46.982;15.248;2023-03-21T03:31:33;4.17;;;2.03;;
13866;SDS011;7003;46.982;15.248;2023-03-21T03:34:04;2.47;;;1.90;;
13866;SDS011;7003;46.982;15.248;2023-03-21T03:36:35;3.57;;;1.87;;
13866;SDS011;7003;46.982;15.248;2023-03-21T03:39:06;1.33;;;1.23;;
13866;SDS011;7003;46.982;15.248;2023-03-21T03:41:39;3.60;;;1.90;;
13866;SDS011;7003;46.982;15.248;2023-03-21T03:44:13;2.37;;;1.63;;
13866;SDS011;7003;46.982;15.248;2023-03-21T03:46:42;3.57;;;2.00;;
13866;SDS011;7003;46.982;15.248;2023-03-21T03:49:13;1.87;;;1.70;;
13866;SDS011;7003;46.982;15.248;2023-03-21T03:51:47;2.03;;;1.93;;
13866;SDS011;7003;46.982;15.248;2023-03-21T03:54:22;1.67;;;1.57;;
13866;SDS011;7003;46.982;15.248;2023-03-21T03:56:53;2.50;;;1.57;;
13866;SDS011;7003;46.982;15.248;2023-03-21T03:59:22;1.97;;;1.53;;
13866;SDS011;7003;46.982;15.248;2023-03-21T04:01:49;2.20;;;1.63;;
13866;SDS011;7003;46.982;15.248;2023-03-21T04:04:16;2.13;;;1.53;;
13866;SDS011;7003;46.982;15.248;2023-03-21T04:06:47;1.33;;;1.17;;
13866;SDS011;7003;46.982;15.248;2023-03-21T04:09:16;2.30;;;2.10;;
13866;SDS011;7003;46.982;15.248;2023-03-21T04:11:44;1.37;;;1.27;;
13866;SDS011;7003;46.982;15.248;2023-03-21T04:14:14;2.40;;;1.83;;
13866;SDS011;7003;46.982;15.248;2023-03-21T04:16:43;3.47;;;1.70;;
13866;SDS011;7003;46.982;15.248;2023-03-21T04:19:10;5.07;;;1.50;;
13866;SDS011;7003;46.982;15.248;2023-03-21T04:21:40;1.30;;;1.17;;
13866;SDS011;7003;46.982;15.248;2023-03-21T04:24:07;1.67;;;1.57;;
13866;SDS011;7003;46.982;15.248;2023-03-21T04:26:38;2.50;;;1.73;;
13866;SDS011;7003;46.982;15.248;2023-03-21T04:29:09;1.93;;;1.73;;
13866;SDS011;7003;46.982;15.248;2023-03-21T04:31:39;2.20;;;1.73;;
13866;SDS011;7003;46.982;15.248;2023-03-21T04:34:06;2.47;;;1.50;;
13866;SDS011;7003;46.982;15.248;2023-03-21T04:36:41;1.30;;;1.20;;
13866;SDS011;7003;46.982;15.248;2023-03-21T04:39:12;6.97;;;1.67;;
13866;SDS011;7003;46.982;15.248;2023-03-21T04:41:41;1.73;;;1.30;;
13866;SDS011;7003;46.982;15.248;2023-03-21T04:44:12;2.00;;;1.80;;
13866;SDS011;7003;46.982;15.248;2023-03-21T04:46:41;1.40;;;1.30;;
13866;SDS011;7003;46.982;15.248;2023-03-21T04:49:09;1.80;;;1.43;;
13866;SDS011;7003;46.982;15.248;2023-03-21T04:51:37;2.80;;;2.30;;
13866;SDS011;7003;46.982;15.248;2023-03-21T04:54:06;1.60;;;1.50;;
13866;SDS011;7003;46.982;15.248;2023-03-21T04:56:35;2.37;;;1.80;;
13866;SDS011;7003;46.982;15.248;2023-03-21T04:59:05;1.87;;;1.67;;
13866;SDS011;7003;46.982;15.248;2023-03-21T05:01:38;1.57;;;1.47;;
13866;SDS011;7003;46.982;15.248;2023-03-21T05:04:09;1.77;;;1.67;;
13866;SDS011;7003;46.982;15.248;2023-03-21T05:06:41;1.63;;;1.53;;
13866;SDS011;7003;46.982;15.248;2023-03-21T05:09:11;1.43;;;1.33;;
13866;SDS011;7003;46.982;15.248;2023-03-21T05:11:43;1.20;;;1.13;;
13866;SDS011;7003;46.982;15.248;2023-03-21T05:14:14;2.40;;;1.70;;
13866;SDS011;7003;46.982;15.248;2023-03-21T05:16:47;1.97;;;1.63;;
13866;SDS011;7003;46.982;15.248;2023-03-21T05:19:23;3.00;;;1.30;;
13866;SDS011;7003;46.982;15.248;2023-03-21T05:22:00;1.63;;;1.53;;
13866;SDS011;7003;46.982;15.248;2023-03-21T05:24:32;2.33;;;1.50;;
13866;SDS011;7003;46.982;15.248;2023-03-21T05:27:02;3.10;;;1.73;;
13866;SDS011;7003;46.982;15.248;2023-03-21T05:29:31;7.00;;;1.67;;
13866;SDS011;7003;46.982;15.248;2023-03-21T05:32:05;1.60;;;1.50;;
13866;SDS011;7003;46.982;15.248;2023-03-21T05:34:35;2.23;;;2.03;;
13866;SDS011;7003;46.982;15.248;2023-03-21T05:37:05;1.80;;;1.33;;
13866;SDS011;7003;46.982;15.248;2023-03-21T05:39:35;2.03;;;1.50;;
13866;SDS011;7003;46.982;15.248;2023-03-21T05:42:05;2.10;;;1.70;;
13866;SDS011;7003;46.982;15.248;2023-03-21T05:44:36;1.20;;;1.10;;
13866;SDS011;7003;46.982;15.248;2023-03-21T05:47:07;1.73;;;1.00;;
13866;SDS011;7003;46.982;15.248;2023-03-21T05:49:39;1.10;;;1.00;;
13866;SDS011;7003;46.982;15.248;2023-03-21T05:52:08;2.30;;;2.10;;
13866;SDS011;7003;46.982;15.248;2023-03-21T05:54:42;1.50;;;1.40;;
13866;SDS011;7003;46.982;15.248;2023-03-21T05:57:15;1.87;;;1.67;;
13866;SDS011;7003;46.982;15.248;2023-03-21T05:59:45;2.53;;;1.90;;
13866;SDS011;7003;46.982;15.248;2023-03-21T06:02:18;2.67;;;2.10;;
13866;SDS011;7003;46.982;15.248;2023-03-21T06:04:48;1.70;;;1.60;;
13866;SDS011;7003;46.982;15.248;2023-03-21T06:07:18;2.23;;;1.80;;
13866;SDS011;7003;46.982;15.248;2023-03-21T06:09:50;1.57;;;1.47;;
13866;SDS011;7003;46.982;15.248;2023-03-21T06:12:23;4.67;;;2.80;;
13866;SDS011;7003;46.982;15.248;2023-03-21T06:14:53;2.47;;;2.27;;
13866;SDS011;7003;46.982;15.248;2023-03-21T06:17:27;1.80;;;1.70;;
13866;SDS011;7003;46.982;15.248;2023-03-21T06:19:56;2.73;;;2.27;;
13866;SDS011;7003;46.982;15.248;2023-03-21T06:22:26;1.97;;;1.83;;
13866;SDS011;7003;46.982;15.248;2023-03-21T06:24:55;1.60;;;1.50;;
13866;SDS011;7003;46.982;15.248;2023-03-21T06:27:27;2.47;;;1.90;;
13866;SDS011;7003;46.982;15.248;2023-03-21T06:29:58;2.70;;;1.87;;
13866;SDS011;7003;46.982;15.248;2023-03-21T06:32:28;1.90;;;1.50;;
13866;SDS011;7003;46.982;15.248;2023-03-21T06:34:58;4.03;;;1.87;;
13866;SDS011;7003;46.982;15.248;2023-03-21T06:37:32;2.60;;;1.80;;
13866;SDS011;7003;46.982;15.248;2023-03-21T06:40:06;2.17;;;1.97;;
13866;SDS011;7003;46.982;15.248;2023-03-21T06:42:35;2.47;;;2.00;;
13866;SDS011;7003;46.982;15.248;2023-03-21T06:45:09;3.70;;;2.92;;
13866;SDS011;7003;46.982;15.248;2023-03-21T06:47:44;5.03;;;2.40;;
13866;SDS011;7003;46.982;15.248;2023-03-21T06:50:14;1.63;;;1.50;;
13866;SDS011;7003;46.982;15.248;2023-03-21T06:52:44;3.17;;;2.00;;
13866;SDS011;7003;46.982;15.248;2023-03-21T06:55:14;5.97;;;4.60;;
13866;SDS011;7003;46.982;15.248;2023-03-21T06:57:44;10.13;;;7.32;;
13866;SDS011;7003;46.982;15.248;2023-03-21T07:00:14;10.55;;;6.57;;
13866;SDS011;7003;46.982;15.248;2023-03-21T07:02:46;4.30;;;2.83;;
13866;SDS011;7003;46.982;15.248;2023-03-21T07:05:17;2.92;;;2.05;;
13866;SDS011;7003;46.982;15.248;2023-03-21T07:07:47;1.35;;;1.15;;
13866;SDS011;7003;46.982;15.248;2023-03-21T07:10:19;1.17;;;1.08;;
13866;SDS011;7003;46.982;15.248;2023-03-21T07:12:47;2.33;;;1.30;;
13866;SDS011;7003;46.982;15.248;2023-03-21T07:15:15;2.80;;;1.20;;
13866;SDS011;7003;46.982;15.248;2023-03-21T07:17:43;1.05;;;1.02;;
13866;SDS011;7003;46.982;15.248;2023-03-21T07:20:12;1.60;;;1.30;;
13866;SDS011;7003;46.982;15.248;2023-03-21T07:22:41;1.58;;;1.48;;
13866;SDS011;7003;46.982;15.248;2023-03-21T07:25:09;1.30;;;1.20;;
13866;SDS011;7003;46.982;15.248;2023-03-21T07:27:37;1.33;;;1.17;;
13866;SDS011;7003;46.982;15.248;2023-03-21T07:30:05;0.90;;;0.90;;
13866;SDS011;7003;46.982;15.248;2023-03-21T07:32:41;1.00;;;0.85;;
13866;SDS011;7003;46.982;15.248;2023-03-21T07:35:13;1.23;;;1.13;;
13866;SDS011;7003;46.982;15.248;2023-03-21T07:37:45;2.85;;;1.45;;
13866;SDS011;7003;46.982;15.248;2023-03-21T07:40:13;1.00;;;1.00;;
13866;SDS011;7003;46.982;15.248;2023-03-21T07:42:42;1.88;;;0.93;;
13866;SDS011;7003;46.982;15.248;2023-03-21T07:45:10;1.95;;;1.20;;
13866;SDS011;7003;46.982;15.248;2023-03-21T07:47:41;0.70;;;0.70;;
13866;SDS011;7003;46.982;15.248;2023-03-21T07:50:10;0.93;;;0.82;;
13866;SDS011;7003;46.982;15.248;2023-03-21T07:52:39;1.30;;;1.20;;
13866;SDS011;7003;46.982;15.248;2023-03-21T07:55:07;2.15;;;1.48;;
13866;SDS011;7003;46.982;15.248;2023-03-21T07:57:38;0.90;;;0.90;;
13866;SDS011;7003;46.982;15.248;2023-03-21T08:00:06;1.25;;;1.13;;
13866;SDS011;7003;46.982;15.248;2023-03-21T08:02:35;2.45;;;1.30;;
13866;SDS011;7003;46.982;15.248;2023-03-21T08:05:03;1.58;;;1.33;;
13866;SDS011;7003;46.982;15.248;2023-03-21T08:07:35;0.98;;;0.98;;
13866;SDS011;7003;46.982;15.248;2023-03-21T08:10:03;1.20;;;1.10;;
13866;SDS011;7003;46.982;15.248;2023-03-21T08:12:31;0.82;;;0.73;;
13866;SDS011;7003;46.982;15.248;2023-03-21T08:14:59;1.23;;;1.13;;
13866;SDS011;7003;46.982;15.248;2023-03-21T08:17:26;1.60;;;1.50;;
13866;SDS011;7003;46.982;15.248;2023-03-21T08:19:54;0.60;;;0.60;;
13866;SDS011;7003;46.982;15.248;2023-03-21T08:22:22;1.02;;;0.93;;
13866;SDS011;7003;46.982;15.248;2023-03-21T08:24:51;1.35;;;0.90;;
13866;SDS011;7003;46.982;15.248;2023-03-21T08:27:20;0.90;;;0.90;;
13866;SDS011;7003;46.982;15.248;2023-03-21T08:29:48;1.20;;;1.10;;
13866;SDS011;7003;46.982;15.248;2023-03-21T08:32:18;0.93;;;0.93;;
13866;SDS011;7003;46.982;15.248;2023-03-21T08:34:52;1.20;;;1.10;;
13866;SDS011;7003;46.982;15.248;2023-03-21T08:37:20;0.93;;;0.85;;
13866;SDS011;7003;46.982;15.248;2023-03-21T08:39:48;1.48;;;1.10;;
13866;SDS011;7003;46.982;15.248;2023-03-21T08:42:20;1.60;;;1.50;;
13866;SDS011;7003;46.982;15.248;2023-03-21T08:44:51;1.08;;;1.00;;
13866;SDS011;7003;46.982;15.248;2023-03-21T08:47:21;1.73;;;1.60;;
13866;SDS011;7003;46.982;15.248;2023-03-21T08:49:49;1.73;;;1.48;;
13866;SDS011;7003;46.982;15.248;2023-03-21T08:52:21;1.15;;;1.10;;
13866;SDS011;7003;46.982;15.248;2023-03-21T08:54:49;3.38;;;1.25;;
13866;SDS011;7003;46.982;15.248;2023-03-21T08:57:17;1.10;;;1.00;;
13866;SDS011;7003;46.982;15.248;2023-03-21T08:59:47;3.60;;;1.55;;
13866;SDS011;7003;46.982;15.248;2023-03-21T09:02:15;0.70;;;0.70;;
13866;SDS011;7003;46.982;15.248;2023-03-21T09:04:44;0.90;;;0.90;;
13866;SDS011;7003;46.982;15.248;2023-03-21T09:07:14;1.15;;;0.85;;
13866;SDS011;7003;46.982;15.248;2023-03-21T09:09:45;0.70;;;0.70;;
13866;SDS011;7003;46.982;15.248;2023-03-21T09:12:13;1.30;;;1.00;;
13866;SDS011;7003;46.982;15.248;2023-03-21T09:14:41;0.55;;;0.55;;
13866;SDS011;7003;46.982;15.248;2023-03-21T09:17:10;0.98;;;0.82;;
13866;SDS011;7003;46.982;15.248;2023-03-21T09:19:38;0.80;;;0.70;;
13866;SDS011;7003;46.982;15.248;2023-03-21T09:22:07;1.33;;;0.90;;
13866;SDS011;7003;46.982;15.248;2023-03-21T09:24:39;1.33;;;0.80;;
13866;SDS011;7003;46.982;15.248;2023-03-21T09:27:09;0.85;;;0.85;;
13866;SDS011;7003;46.982;15.248;2023-03-21T09:29:39;1.17;;;1.08;;
13866;SDS011;7003;46.982;15.248;2023-03-21T09:32:08;1.10;;;1.00;;
13866;SDS011;7003;46.982;15.248;2023-03-21T09:34:38;1.15;;;0.85;;
13866;SDS011;7003;46.982;15.248;2023-03-21T09:37:09;0.93;;;0.93;;
13866;SDS011;7003;46.982;15.248;2023-03-21T09:39:38;1.23;;;1.10;;
13866;SDS011;7003;46.982;15.248;2023-03-21T09:42:13;0.90;;;0.88;;
13866;SDS011;7003;46.982;15.248;2023-03-21T09:44:56;1.27;;;0.82;;
13866;SDS011;7003;46.982;15.248;2023-03-21T09:47:37;1.00;;;0.80;;
13866;SDS011;7003;46.982;15.248;2023-03-21T09:50:20;0.85;;;0.80;;
13866;SDS011;7003;46.982;15.248;2023-03-21T09:52:54;1.63;;;0.93;;
13866;SDS011;7003;46.982;15.248;2023-03-21T09:55:24;1.17;;;0.93;;
13866;SDS011;7003;46.982;15.248;2023-03-21T09:57:58;0.80;;;0.80;;
13866;SDS011;7003;46.982;15.248;2023-03-21T10:00:36;1.20;;;1.10;;
13866;SDS011;7003;46.982;15.248;2023-03-21T10:03:11;0.90;;;0.90;;
13866;SDS011;7003;46.982;15.248;2023-03-21T10:05:53;1.13;;;1.02;;
13866;SDS011;7003;46.982;15.248;2023-03-21T10:08:26;1.00;;;0.80;;
13866;SDS011;7003;46.982;15.248;2023-03-21T10:10:59;1.05;;;0.90;;
13866;SDS011;7003;46.982;15.248;2023-03-21T10:13:34;0.57;;;0.52;;
13866;SDS011;7003;46.982;15.248;2023-03-21T10:16:09;0.57;;;0.57;;
13866;SDS011;7003;46.982;15.248;2023-03-21T10:18:42;0.80;;;0.80;;
13866;SDS011;7003;46.982;15.248;2023-03-21T10:21:15;0.50;;;0.50;;
13866;SDS011;7003;46.982;15.248;2023-03-21T10:23:47;0.60;;;0.60;;
13866;SDS011;7003;46.982;15.248;2023-03-21T10:26:17;0.95;;;0.70;;
13866;SDS011;7003;46.982;15.248;2023-03-21T10:28:49;0.57;;;0.57;;
13866;SDS011;7003;46.982;15.248;2023-03-21T10:31:18;0.80;;;0.80;;
13866;SDS011;7003;46.982;15.248;2023-03-21T10:33:50;0.70;;;0.70;;
13866;SDS011;7003;46.982;15.248;2023-03-21T10:36:23;0.75;;;0.75;;
13866;SDS011;7003;46.982;15.248;2023-03-21T10:38:58;0.77;;;0.77;;
13866;SDS011;7003;46.982;15.248;2023-03-21T10:41:31;1.65;;;1.00;;
13866;SDS011;7003;46.982;15.248;2023-03-21T10:44:05;1.30;;;1.20;;
13866;SDS011;7003;46.982;15.248;2023-03-21T10:46:34;1.00;;;0.90;;
13866;SDS011;7003;46.982;15.248;2023-03-21T10:49:02;1.00;;;0.98;;
13866;SDS011;7003;46.982;15.248;2023-03-21T10:51:36;0.70;;;0.70;;
13866;SDS011;7003;46.982;15.248;2023-03-21T10:54:07;1.00;;;1.00;;
13866;SDS011;7003;46.982;15.248;2023-03-21T10:56:39;1.20;;;1.10;;
13866;SDS011;7003;46.982;15.248;2023-03-21T10:59:15;2.05;;;1.05;;
13866;SDS011;7003;46.982;15.248;2023-03-21T11:01:47;1.35;;;1.08;;
13866;SDS011;7003;46.982;15.248;2023-03-21T11:04:20;1.30;;;1.10;;
13866;SDS011;7003;46.982;15.248;2023-03-21T11:06:52;1.25;;;1.15;;
13866;SDS011;7003;46.982;15.248;2023-03-21T11:09:25;1.48;;;1.38;;
13866;SDS011;7003;46.982;15.248;2023-03-21T11:12:10;0.85;;;0.85;;
13866;SDS011;7003;46.982;15.248;2023-03-21T11:14:42;1.00;;;0.82;;
13866;SDS011;7003;46.982;15.248;2023-03-21T11:17:21;1.05;;;0.98;;
13866;SDS011;7003;46.982;15.248;2023-03-21T11:19:53;1.10;;;1.00;;
13866;SDS011;7003;46.982;15.248;2023-03-21T11:22:27;0.80;;;0.80;;
13866;SDS011;7003;46.982;15.248;2023-03-21T11:24:57;1.30;;;1.02;;
13866;SDS011;7003;46.982;15.248;2023-03-21T11:27:26;1.27;;;1.17;;
13866;SDS011;7003;46.982;15.248;2023-03-21T11:29:56;0.77;;;0.77;;
13866;SDS011;7003;46.982;15.248;2023-03-21T11:32:30;1.27;;;1.10;;
13866;SDS011;7003;46.982;15.248;2023-03-21T11:35:03;1.27;;;1.15;;
13866;SDS011;7003;46.982;15.248;2023-03-21T11:37:37;0.93;;;0.93;;
13866;SDS011;7003;46.982;15.248;2023-03-21T11:40:20;1.27;;;1.17;;
13866;SDS011;7003;46.982;15.248;2023-03-21T11:42:52;1.08;;;0.77;;
13866;SDS011;7003;46.982;15.248;2023-03-21T11:45:22;1.65;;;1.23;;
13866;SDS011;7003;46.982;15.248;2023-03-21T11:47:54;1.52;;;1.15;;
13866;SDS011;7003;46.982;15.248;2023-03-21T11:50:25;1.23;;;1.00;;
13866;SDS011;7003;46.982;15.248;2023-03-21T11:55:59;0.68;;;0.68;;
13866;SDS011;7003;46.982;15.248;2023-03-21T11:58:45;2.08;;;1.35;;
13866;SDS011;7003;46.982;15.248;2023-03-21T12:01:25;1.25;;;1.15;;
13866;SDS011;7003;46.982;15.248;2023-03-21T12:04:02;0.95;;;0.93;;
13866;SDS011;7003;46.982;15.248;2023-03-21T12:06:38;1.08;;;0.95;;
13866;SDS011;7003;46.982;15.248;2023-03-21T12:09:28;1.10;;;1.00;;
13866;SDS011;7003;46.982;15.248;2023-03-21T12:12:08;1.98;;;1.20;;
13866;SDS011;7003;46.982;15.248;2023-03-21T12:14:56;1.38;;;1.17;;
13866;SDS011;7003;46.982;15.248;2023-03-21T12:17:37;2.03;;;1.27;;
13866;SDS011;7003;46.982;15.248;2023-03-21T12:20:22;3.75;;;1.70;;
13866;SDS011;7003;46.982;15.248;2023-03-21T12:23:05;1.63;;;1.20;;
13866;SDS011;7003;46.982;15.248;2023-03-21T12:25:44;1.30;;;1.20;;
13866;SDS011;7003;46.982;15.248;2023-03-21T12:28:25;0.90;;;0.88;;
13866;SDS011;7003;46.982;15.248;2023-03-21T12:31:05;1.20;;;1.10;;
13866;SDS011;7003;46.982;15.248;2023-03-21T12:33:46;1.20;;;1.10;;
13866;SDS011;7003;46.982;15.248;2023-03-21T12:36:32;1.52;;;1.42;;
13866;SDS011;7003;46.982;15.248;2023-03-21T12:39:18;1.35;;;1.10;;
13866;SDS011;7003;46.982;15.248;2023-03-21T12:41:57;1.00;;;0.95;;
13866;SDS011;7003;46.982;15.248;2023-03-21T12:44:45;0.88;;;0.88;;
13866;SDS011;7003;46.982;15.248;2023-03-21T12:47:18;2.28;;;1.30;;
13866;SDS011;7003;46.982;15.248;2023-03-21T12:49:52;1.15;;;1.05;;
13866;SDS011;7003;46.982;15.248;2023-03-21T12:52:24;0.75;;;0.75;;
13866;SDS011;7003;46.982;15.248;2023-03-21T12:54:57;0.98;;;0.98;;
13866;SDS011;7003;46.982;15.248;2023-03-21T12:57:31;1.83;;;1.27;;
13866;SDS011;7003;46.982;15.248;2023-03-21T13:00:04;1.38;;;1.27;;
13866;SDS011;7003;46.982;15.248;2023-03-21T13:02:41;1.75;;;1.17;;
13866;SDS011;7003;46.982;15.248;2023-03-21T13:05:18;1.00;;;0.90;;
13866;SDS011;7003;46.982;15.248;2023-03-21T13:07:53;2.13;;;1.25;;
13866;SDS011;7003;46.982;15.248;2023-03-21T13:10:25;2.88;;;1.20;;
13866;SDS011;7003;46.982;15.248;2023-03-21T13:12:57;6.55;;;1.15;;
13866;SDS011;7003;46.982;15.248;2023-03-21T13:18:39;5.80;;;1.20;;
13866;SDS011;7003;46.982;15.248;2023-03-21T13:21:18;0.85;;;0.85;;
13866;SDS011;7003;46.982;15.248;2023-03-21T13:24:00;1.10;;;1.00;;
13866;SDS011;7003;46.982;15.248;2023-03-21T13:26:32;1.48;;;1.38;;
13866;SDS011;7003;46.982;15.248;2023-03-21T13:29:18;1.00;;;0.80;;
13866;SDS011;7003;46.982;15.248;2023-03-21T13:31:53;1.15;;;1.05;;
13866;SDS011;7003;46.982;15.248;2023-03-21T13:34:23;1.33;;;1.20;;
13866;SDS011;7003;46.982;15.248;2023-03-21T13:36:55;1.67;;;1.58;;
13866;SDS011;7003;46.982;15.248;2023-03-21T13:39:28;1.50;;;1.20;;
13866;SDS011;7003;46.982;15.248;2023-03-21T13:42:00;1.52;;;1.42;;
13866;SDS011;7003;46.982;15.248;2023-03-21T13:44:38;0.88;;;0.88;;
13866;SDS011;7003;46.982;15.248;2023-03-21T13:47:22;1.33;;;1.20;;
13866;SDS011;7003;46.982;15.248;2023-03-21T13:55:58;16.67;;;1.63;;
13866;SDS011;7003;46.982;15.248;2023-03-21T13:58:36;1.00;;;0.95;;
13866;SDS011;7003;46.982;15.248;2023-03-21T14:04:15;4.07;;;1.08;;
13866;SDS011;7003;46.982;15.248;2023-03-21T14:06:48;2.25;;;1.42;;
13866;SDS011;7003;46.982;15.248;2023-03-21T14:09:24;2.25;;;1.13;;
13866;SDS011;7003;46.982;15.248;2023-03-21T14:11:59;1.27;;;1.17;;
13866;SDS011;7003;46.982;15.248;2023-03-21T14:14:30;0.95;;;0.90;;
13866;SDS011;7003;46.982;15.248;2023-03-21T14:19:55;0.82;;;0.82;;
13866;SDS011;7003;46.982;15.248;2023-03-21T14:22:28;1.52;;;1.20;;
13866;SDS011;7003;46.982;15.248;2023-03-21T14:24:59;1.38;;;1.27;;
13866;SDS011;7003;46.982;15.248;2023-03-21T14:27:32;1.10;;;1.00;;
13866;SDS011;7003;46.982;15.248;2023-03-21T14:30:02;1.25;;;1.00;;
13866;SDS011;7003;46.982;15.248;2023-03-21T14:32:36;1.08;;;1.05;;
13866;SDS011;7003;46.982;15.248;2023-03-21T14:35:08;2.80;;;1.45;;
13866;SDS011;7003;46.982;15.248;2023-03-21T14:37:42;1.42;;;1.05;;
13866;SDS011;7003;46.982;15.248;2023-03-21T14:40:20;1.52;;;1.20;;
13866;SDS011;7003;46.982;15.248;2023-03-21T14:42:50;1.33;;;1.23;;
13866;SDS011;7003;46.982;15.248;2023-03-21T14:45:22;1.27;;;0.98;;
13866;SDS011;7003;46.982;15.248;2023-03-21T14:47:56;1.55;;;1.33;;
13866;SDS011;7003;46.982;15.248;2023-03-21T14:50:28;1.35;;;1.25;;
13866;SDS011;7003;46.982;15.248;2023-03-21T14:53:04;1.23;;;1.10;;
13866;SDS011;7003;46.982;15.248;2023-03-21T14:55:40;1.67;;;1.40;;
13866;SDS011;7003;46.982;15.248;2023-03-21T14:58:11;1.38;;;1.27;;
13866;SDS011;7003;46.982;15.248;2023-03-21T15:00:46;1.95;;;0.93;;
13866;SDS011;7003;46.982;15.248;2023-03-21T15:03:18;0.93;;;0.88;;
13866;SDS011;7003;46.982;15.248;2023-03-21T15:05:48;1.30;;;1.20;;
13866;SDS011;7003;46.982;15.248;2023-03-21T15:08:20;1.75;;;1.30;;
13866;SDS011;7003;46.982;15.248;2023-03-21T15:10:53;1.50;;;1.40;;
13866;SDS011;7003;46.982;15.248;2023-03-21T15:13:24;1.23;;;1.13;;
13866;SDS011;7003;46.982;15.248;2023-03-21T15:15:56;1.63;;;1.40;;
13866;SDS011;7003;46.982;15.248;2023-03-21T15:18:27;1.33;;;1.10;;
13866;SDS011;7003;46.982;15.248;2023-03-21T15:20:59;2.13;;;1.08;;
13866;SDS011;7003;46.982;15.248;2023-03-21T15:23:32;1.52;;;1.42;;
13866;SDS011;7003;46.982;15.248;2023-03-21T15:26:05;4.15;;;1.13;;
13866;SDS011;7003;46.982;15.248;2023-03-21T15:28:37;1.25;;;1.17;;
13866;SDS011;7003;46.982;15.248;2023-03-21T15:31:15;1.00;;;1.00;;
13866;SDS011;7003;46.982;15.248;2023-03-21T15:33:48;1.23;;;1.13;;
13866;SDS011;7003;46.982;15.248;2023-03-21T15:36:20;1.20;;;1.05;;
13866;SDS011;7003;46.982;15.248;2023-03-21T15:38:50;1.63;;;1.08;;
13866;SDS011;7003;46.982;15.248;2023-03-21T15:41:24;1.20;;;1.10;;
13866;SDS011;7003;46.982;15.248;2023-03-21T15:44:02;1.35;;;0.98;;
13866;SDS011;7003;46.982;15.248;2023-03-21T15:46:40;2.95;;;1.17;;
13866;SDS011;7003;46.982;15.248;2023-03-21T15:49:19;1.30;;;1.20;;